createdAt,value
2023-05-14T00:01:31.538Z,65.72
2023-05-14T00:03:58.169Z,67.09
2023-05-14T00:06:25.452Z,67.35
2023-05-14T00:08:51.784Z,66.51
2023-05-14T00:11:18.244Z,67.43
2023-05-14T00:13:44.688Z,67.30
2023-05-14T00:16:11.829Z,66.91
2023-05-14T00:18:38.577Z,67.94
2023-05-14T00:21:05.119Z,67.95
2023-05-14T00:23:31.549Z,67.59
2023-05-14T00:25:58.023Z,67.77
2023-05-14T00:28:24.477Z,67.88
2023-05-14T00:30:51.454Z,68.07
2023-05-14T00:33:17.902Z,67.69
2023-05-14T00:35:44.386Z,67.92
2023-05-14T00:38:17.157Z,68.04
2023-05-14T00:40:45.926Z,67.38
2023-05-14T00:43:12.541Z,67.63
2023-05-14T00:45:39.263Z,68.24
2023-05-14T00:48:05.872Z,67.85
2023-05-14T00:50:32.330Z,67.66
2023-05-14T00:52:58.887Z,68.18
2023-05-14T00:55:25.996Z,68.20
2023-05-14T00:57:54.712Z,68.22
2023-05-14T01:00:21.417Z,67.98
2023-05-14T01:02:51.364Z,68.41
2023-05-14T01:05:18.311Z,69.02
2023-05-14T01:08:05.313Z,68.88
2023-05-14T01:11:06.515Z,70.17
2023-05-14T01:13:48.292Z,69.55
2023-05-14T01:16:19.052Z,69.58
2023-05-14T01:18:48.503Z,69.68
2023-05-14T01:21:43.524Z,69.73
2023-05-14T01:24:09.998Z,70.06
2023-05-14T01:26:36.954Z,69.58
2023-05-14T01:29:16.569Z,69.77
2023-05-14T01:31:46.067Z,69.91
2023-05-14T01:34:14.735Z,69.69
2023-05-14T01:51:47.976Z,76.06
2023-05-14T01:54:14.481Z,75.92
2023-05-14T01:56:40.987Z,74.97
2023-05-14T01:59:07.517Z,74.62
2023-05-14T02:01:34.203Z,73.50
2023-05-14T02:04:01.227Z,73.54
2023-05-14T02:06:27.729Z,73.05
2023-05-14T02:08:54.200Z,72.98
2023-05-14T02:11:21.889Z,72.42
2023-05-14T02:13:48.337Z,72.56
2023-05-14T02:16:14.851Z,71.32
2023-05-14T02:18:41.432Z,71.92
2023-05-14T02:21:07.909Z,72.33
2023-05-14T02:23:41.519Z,71.85
2023-05-14T02:26:10.103Z,72.37
2023-05-14T02:28:36.554Z,72.29
2023-05-14T02:31:03.119Z,72.76
2023-05-14T02:33:29.638Z,72.25
2023-05-14T02:35:56.171Z,73.21
2023-05-14T02:38:23.212Z,73.25
2023-05-14T02:40:49.752Z,73.20
2023-05-14T02:43:16.217Z,73.98
2023-05-14T02:45:43.103Z,72.94
2023-05-14T02:48:09.664Z,72.64
2023-05-14T02:50:36.168Z,72.02
2023-05-14T02:53:02.614Z,71.96
2023-05-14T02:55:29.274Z,72.72
2023-05-14T02:57:56.846Z,71.45
2023-05-14T03:00:23.748Z,71.68
2023-05-14T03:02:50.899Z,71.00
2023-05-14T03:05:17.934Z,70.52
2023-05-14T03:07:44.374Z,70.77
2023-05-14T03:10:10.912Z,71.00
2023-05-14T03:12:37.380Z,71.08
2023-05-14T03:15:03.997Z,70.94
2023-05-14T03:17:30.542Z,71.48
2023-05-14T03:19:57.033Z,71.50
2023-05-14T03:22:23.476Z,71.28
2023-05-14T03:24:49.900Z,71.23
2023-05-14T03:27:16.380Z,71.60
2023-05-14T03:29:42.829Z,71.32
2023-05-14T03:32:09.376Z,70.52
2023-05-14T03:34:36.063Z,71.00
2023-05-14T03:37:02.529Z,71.21
2023-05-14T03:39:29.033Z,71.23
2023-05-14T03:41:57.260Z,72.21
2023-05-14T03:44:23.746Z,71.08
2023-05-14T03:46:50.319Z,71.07
2023-05-14T03:49:16.776Z,70.55
2023-05-14T03:51:43.354Z,69.77
2023-05-14T03:54:10.507Z,69.61
2023-05-14T03:56:37.044Z,69.32
2023-05-14T03:59:03.470Z,69.26
2023-05-14T04:01:30.117Z,69.23
2023-05-14T04:03:56.742Z,69.31
2023-05-14T04:06:23.247Z,69.18
2023-05-14T04:08:49.785Z,68.95
2023-05-14T04:11:16.218Z,68.94
2023-05-14T04:13:42.732Z,69.54
2023-05-14T04:16:09.179Z,69.17
2023-05-14T04:18:35.854Z,69.04
2023-05-14T04:21:02.921Z,69.25
2023-05-14T04:23:29.705Z,69.23
2023-05-14T04:25:56.067Z,69.67
2023-05-14T04:28:22.558Z,69.64
2023-05-14T04:30:49.475Z,69.04
2023-05-14T04:33:15.919Z,69.04
2023-05-14T04:35:42.333Z,68.49
2023-05-14T04:38:09.180Z,68.59
2023-05-14T04:40:35.565Z,67.65
2023-05-14T04:43:02.039Z,68.19
2023-05-14T04:45:28.472Z,68.13
2023-05-14T04:47:55.053Z,67.27
2023-05-14T04:50:22.102Z,67.07
2023-05-14T04:52:48.758Z,67.66
2023-05-14T04:55:15.295Z,68.62
2023-05-14T04:57:41.740Z,68.90
2023-05-14T05:00:10.084Z,68.43
2023-05-14T05:02:36.670Z,68.83
2023-05-14T05:05:06.109Z,67.77
2023-05-14T05:07:32.582Z,68.32
2023-05-14T05:09:59.075Z,67.69
2023-05-14T05:12:26.068Z,68.00
2023-05-14T05:14:52.523Z,68.27
2023-05-14T05:17:18.960Z,67.53
2023-05-14T05:19:45.541Z,67.45
2023-05-14T05:22:12.074Z,66.96
2023-05-14T05:24:38.568Z,66.36
2023-05-14T05:27:05.621Z,65.60
2023-05-14T05:29:32.316Z,66.84
2023-05-14T05:31:59.204Z,66.39
2023-05-14T05:34:25.705Z,66.53
2023-05-14T05:36:52.200Z,67.12
2023-05-14T05:39:18.636Z,66.87
2023-05-14T05:41:45.140Z,67.44
2023-05-14T05:44:11.619Z,67.00
2023-05-14T05:46:38.105Z,66.86
2023-05-14T05:49:04.533Z,64.74
2023-05-14T05:51:31.543Z,62.79
2023-05-14T05:54:00.922Z,62.97
2023-05-14T05:56:28.425Z,62.92
2023-05-14T05:58:54.825Z,63.29
2023-05-14T06:01:21.286Z,63.05
2023-05-14T06:03:48.850Z,63.62
2023-05-14T06:06:15.753Z,63.27
2023-05-14T06:08:42.258Z,63.49
2023-05-14T06:11:08.979Z,63.83
2023-05-14T06:13:35.450Z,62.78
2023-05-14T06:16:02.130Z,63.54
2023-05-14T06:18:28.704Z,63.61
2023-05-14T06:20:56.843Z,61.84
2023-05-14T06:23:23.334Z,61.79
2023-05-14T06:25:53.645Z,60.77
2023-05-14T06:28:20.234Z,60.15
2023-05-14T06:30:49.892Z,61.22
2023-05-14T06:33:17.015Z,61.20
2023-05-14T06:35:45.991Z,59.48
2023-05-14T06:38:12.475Z,59.50
2023-05-14T06:40:38.920Z,57.81
2023-05-14T06:43:06.771Z,57.31
2023-05-14T06:45:33.395Z,56.62
2023-05-14T06:48:00.101Z,58.37
2023-05-14T06:50:26.563Z,58.70
2023-05-14T06:52:52.998Z,57.10
2023-05-14T06:55:19.466Z,57.47
2023-05-14T06:57:46.070Z,57.55
2023-05-14T07:00:14.397Z,59.17
2023-05-14T07:02:40.909Z,58.34
2023-05-14T07:05:08.651Z,57.75
2023-05-14T07:07:35.217Z,54.90
2023-05-14T07:10:01.778Z,54.47
2023-05-14T07:12:28.262Z,53.68
2023-05-14T07:14:54.694Z,54.28
2023-05-14T07:17:21.165Z,54.62
2023-05-14T07:19:47.724Z,54.55
2023-05-14T07:22:14.761Z,54.64
2023-05-14T07:24:41.284Z,52.91
2023-05-14T07:27:08.653Z,55.42
2023-05-14T07:29:35.202Z,54.50
2023-05-14T07:32:01.979Z,55.83
2023-05-14T07:34:28.356Z,56.65
2023-05-14T07:36:55.225Z,56.47
2023-05-14T07:39:21.660Z,54.06
2023-05-14T07:41:48.059Z,52.47
2023-05-14T07:44:14.608Z,53.27
2023-05-14T07:46:42.596Z,53.65
2023-05-14T07:49:09.050Z,54.10
2023-05-14T07:51:35.482Z,54.26
2023-05-14T07:54:02.072Z,54.42
2023-05-14T07:56:28.712Z,52.66
2023-05-14T07:58:55.255Z,51.57
2023-05-14T08:01:21.849Z,51.17
2023-05-14T08:03:48.608Z,50.35
2023-05-14T08:06:15.301Z,51.30
2023-05-14T08:08:41.760Z,48.27
2023-05-14T08:11:08.570Z,47.73
2023-05-14T08:13:39.445Z,47.47
2023-05-14T08:16:07.088Z,47.30
2023-05-14T08:18:33.506Z,48.90
2023-05-14T08:21:01.015Z,49.30
2023-05-14T08:23:28.692Z,48.55
2023-05-14T08:25:55.226Z,47.84
2023-05-14T08:28:21.681Z,49.61
2023-05-14T08:30:48.169Z,45.78
2023-05-14T08:33:14.748Z,47.76
2023-05-14T08:35:41.332Z,46.15
2023-05-14T08:38:07.823Z,45.25
2023-05-14T08:40:35.471Z,47.12
2023-05-14T08:43:02.649Z,48.56
2023-05-14T08:45:35.229Z,45.03
2023-05-14T08:48:06.870Z,46.33
2023-05-14T08:50:33.751Z,44.94
2023-05-14T08:53:00.475Z,43.64
2023-05-14T08:55:28.406Z,46.71
2023-05-14T08:57:54.898Z,46.29
2023-05-14T09:00:21.688Z,42.69
2023-05-14T09:02:49.249Z,47.10
2023-05-14T09:05:18.384Z,46.10
2023-05-14T09:07:45.691Z,42.88
2023-05-14T09:10:12.133Z,42.37
2023-05-14T09:12:38.767Z,43.03
2023-05-14T09:15:07.703Z,42.51
2023-05-14T09:17:34.938Z,42.66
2023-05-14T09:20:01.686Z,41.21
2023-05-14T09:22:31.872Z,39.94
2023-05-14T09:25:07.100Z,42.51
2023-05-14T09:27:34.409Z,43.96
2023-05-14T09:30:12.225Z,41.07
2023-05-14T09:32:44.259Z,44.38
2023-05-14T09:35:11.538Z,40.21
2023-05-14T09:37:38.073Z,37.19
2023-05-14T09:40:09.193Z,37.76
2023-05-14T09:42:35.690Z,39.43
2023-05-14T09:45:03.255Z,41.72
2023-05-14T09:47:30.019Z,38.03
2023-05-14T09:49:56.786Z,39.64
2023-05-14T09:52:27.412Z,40.78
2023-05-14T09:54:54.265Z,40.88
2023-05-14T09:57:21.174Z,41.60
2023-05-14T09:59:49.997Z,43.18
2023-05-14T10:02:21.359Z,39.82
2023-05-14T10:04:49.767Z,36.38
2023-05-14T10:07:19.027Z,39.71
2023-05-14T10:09:46.750Z,38.25
2023-05-14T10:12:20.084Z,35.09
2023-05-14T10:14:53.266Z,36.84
2023-05-14T10:17:22.125Z,40.05
2023-05-14T10:19:54.574Z,38.35
2023-05-14T10:22:32.555Z,38.95
2023-05-14T10:24:59.857Z,36.66
2023-05-14T10:27:27.030Z,38.16
2023-05-14T10:29:55.205Z,35.74
2023-05-14T10:32:33.089Z,38.71
2023-05-14T10:35:01.707Z,37.04
2023-05-14T10:37:30.138Z,38.69
2023-05-14T10:40:02.748Z,38.24
2023-05-14T10:42:35.863Z,34.40
2023-05-14T10:45:07.444Z,33.46
2023-05-14T10:47:40.442Z,35.07
2023-05-14T10:50:09.878Z,35.46
2023-05-14T10:52:36.849Z,35.62
2023-05-14T10:55:58.575Z,40.38
2023-05-14T10:59:38.279Z,37.75
2023-05-14T11:01:45.082Z,37.34
2023-05-14T11:04:19.481Z,36.45
2023-05-14T11:06:47.451Z,37.73
2023-05-14T11:09:17.793Z,40.90
2023-05-14T11:11:44.230Z,41.66
2023-05-14T11:14:10.788Z,40.82
2023-05-14T11:16:37.956Z,37.44
2023-05-14T11:19:05.123Z,39.50
2023-05-14T11:21:32.927Z,39.09
2023-05-14T11:24:00.812Z,39.51
2023-05-14T11:26:27.330Z,37.19
2023-05-14T11:28:53.976Z,40.22
2023-05-14T11:31:22.357Z,39.51
2023-05-14T11:33:48.919Z,37.85
2023-05-14T11:36:15.400Z,40.72
2023-05-14T11:38:49.064Z,39.68
2023-05-14T11:41:16.146Z,41.88
2023-05-14T11:43:42.948Z,42.91
2023-05-14T11:46:16.008Z,40.85
2023-05-14T11:48:42.516Z,42.71
2023-05-14T11:51:08.956Z,41.60
2023-05-14T11:53:35.497Z,44.29
2023-05-14T11:56:03.191Z,40.52
2023-05-14T11:58:33.974Z,43.93
2023-05-14T12:01:00.541Z,42.85
2023-05-14T12:03:29.483Z,44.15
2023-05-14T12:05:59.507Z,40.76
2023-05-14T12:08:28.556Z,46.51
2023-05-14T12:10:56.313Z,39.45
2023-05-14T12:13:27.117Z,39.57
2023-05-14T12:16:02.308Z,39.51
2023-05-14T12:18:31.092Z,42.36
2023-05-14T12:21:04.730Z,43.96
2023-05-14T12:23:32.523Z,40.41
2023-05-14T12:26:06.491Z,43.66
2023-05-14T12:28:36.859Z,43.10
2023-05-14T12:31:04.721Z,43.17
2023-05-14T12:33:31.226Z,40.86
2023-05-14T12:36:13.544Z,44.25
2023-05-14T12:38:49.868Z,41.49
2023-05-14T12:41:20.287Z,46.47
2023-05-14T12:43:49.427Z,45.48
2023-05-14T12:46:16.677Z,44.35
2023-05-14T12:48:43.557Z,43.14
2023-05-14T12:51:10.498Z,40.82
2023-05-14T12:53:37.065Z,40.58
2023-05-14T12:56:03.849Z,41.88
2023-05-14T12:58:30.314Z,43.65
2023-05-14T13:00:57.030Z,43.99
2023-05-14T13:03:23.744Z,40.18
2023-05-14T13:05:55.736Z,39.10
2023-05-14T13:08:25.051Z,37.99
2023-05-14T13:11:00.676Z,41.33
2023-05-14T13:13:29.832Z,35.66
2023-05-14T13:15:56.753Z,40.22
2023-05-14T13:18:23.308Z,34.04
2023-05-14T13:20:49.828Z,35.78
2023-05-14T13:23:19.308Z,37.93
2023-05-14T13:25:46.899Z,39.91
2023-05-14T13:28:15.068Z,39.64
2023-05-14T13:30:41.563Z,40.02
2023-05-14T13:33:09.118Z,37.48
2023-05-14T13:35:35.773Z,39.27
2023-05-14T13:38:02.231Z,39.42
2023-05-14T13:40:28.728Z,42.03
2023-05-14T13:42:55.327Z,39.42
2023-05-14T13:45:22.180Z,41.81
2023-05-14T13:47:49.665Z,39.58
2023-05-14T13:50:18.326Z,38.97
2023-05-14T13:52:44.835Z,36.96
2023-05-14T13:55:11.319Z,37.60
2023-05-14T13:57:39.880Z,37.74
2023-05-14T14:00:07.420Z,40.98
2023-05-14T14:02:34.324Z,39.71
2023-05-14T14:05:01.268Z,39.46
2023-05-14T14:07:31.216Z,40.15
2023-05-14T14:09:57.852Z,38.31
2023-05-14T14:12:24.544Z,38.73
2023-05-14T14:14:51.158Z,37.73
2023-05-14T14:17:18.041Z,35.48
2023-05-14T14:23:32.406Z,40.80
2023-05-14T14:25:59.438Z,37.11
2023-05-14T14:28:26.349Z,38.26
2023-05-14T14:30:52.889Z,42.27
2023-05-14T14:33:20.501Z,40.58
2023-05-14T14:35:47.037Z,41.14
2023-05-14T14:38:14.250Z,39.57
2023-05-14T14:40:40.880Z,40.17
2023-05-14T14:43:07.380Z,40.92
2023-05-14T14:45:34.275Z,40.48
2023-05-14T14:48:24.124Z,41.68
2023-05-14T14:50:52.065Z,43.20
2023-05-14T14:53:19.966Z,41.26
2023-05-14T14:55:47.221Z,45.24
2023-05-14T14:58:13.748Z,41.75
2023-05-14T15:00:40.538Z,45.29
2023-05-14T15:03:09.299Z,45.77
2023-05-14T15:05:35.973Z,46.55
2023-05-14T15:08:10.796Z,40.89
2023-05-14T15:10:38.363Z,44.75
2023-05-14T15:13:06.436Z,39.88
2023-05-14T15:15:34.600Z,44.14
2023-05-14T15:18:01.614Z,40.54
2023-05-14T15:20:28.323Z,43.34
2023-05-14T15:22:55.506Z,41.84
2023-05-14T15:25:23.704Z,44.72
2023-05-14T15:27:50.823Z,41.95
2023-05-14T15:30:17.292Z,42.63
2023-05-14T15:32:45.244Z,40.00
2023-05-14T15:35:11.945Z,44.02
2023-05-14T15:37:39.490Z,43.11
2023-05-14T15:40:10.320Z,44.95
2023-05-14T15:42:43.824Z,42.97
2023-05-14T15:45:12.459Z,42.08
2023-05-14T15:47:39.699Z,43.47
2023-05-14T15:50:07.035Z,41.93
2023-05-14T15:52:34.932Z,46.54
2023-05-14T15:55:01.585Z,46.14
2023-05-14T15:57:28.123Z,44.95
2023-05-14T15:59:54.634Z,41.76
2023-05-14T16:02:21.105Z,45.04
2023-05-14T16:04:49.475Z,43.29
2023-05-14T16:07:16.439Z,44.51
2023-05-14T16:09:45.612Z,40.26
2023-05-14T16:12:12.481Z,44.25
2023-05-14T16:14:41.234Z,41.16
2023-05-14T16:17:08.592Z,43.47
2023-05-14T16:19:34.956Z,42.15
2023-05-14T16:22:01.377Z,46.13
2023-05-14T16:24:27.850Z,44.38
2023-05-14T16:26:55.120Z,45.17
2023-05-14T16:29:21.598Z,45.47
2023-05-14T16:31:48.103Z,45.37
2023-05-14T16:34:14.603Z,44.50
2023-05-14T16:36:41.275Z,45.56
2023-05-14T16:39:08.630Z,42.50
2023-05-14T16:41:35.674Z,43.35
2023-05-14T16:44:02.516Z,44.47
2023-05-14T16:46:29.245Z,42.28
2023-05-14T16:48:56.229Z,42.28
2023-05-14T16:51:22.677Z,42.14
2023-05-14T16:53:49.270Z,43.52
2023-05-14T16:56:15.735Z,42.74
2023-05-14T16:58:42.230Z,43.54
2023-05-14T17:01:09.790Z,45.69
2023-05-14T17:03:36.793Z,44.62
2023-05-14T17:06:03.554Z,44.42
2023-05-14T17:08:33.698Z,46.16
2023-05-14T17:11:00.277Z,45.40
2023-05-14T17:13:26.716Z,46.00
2023-05-14T17:15:53.335Z,49.37
2023-05-14T17:18:19.865Z,48.35
2023-05-14T17:20:46.399Z,45.89
2023-05-14T17:23:13.008Z,47.02
2023-05-14T17:25:39.467Z,49.75
2023-05-14T17:28:15.916Z,49.84
2023-05-14T17:30:42.390Z,49.08
2023-05-14T17:33:08.959Z,50.98
2023-05-14T17:35:36.507Z,50.97
2023-05-14T17:38:03.631Z,49.21
2023-05-14T17:40:30.184Z,50.25
2023-05-14T17:42:56.669Z,51.68
2023-05-14T17:45:23.443Z,50.86
2023-05-14T17:47:51.421Z,52.39
2023-05-14T17:50:18.813Z,50.71
2023-05-14T17:52:46.191Z,52.09
2023-05-14T17:55:12.726Z,52.41
2023-05-14T17:57:39.223Z,51.18
2023-05-14T18:00:06.466Z,53.62
2023-05-14T18:02:33.093Z,53.89
2023-05-14T18:05:03.091Z,53.97
2023-05-14T18:07:30.730Z,53.76
2023-05-14T18:09:57.696Z,53.27
2023-05-14T18:12:27.787Z,54.13
2023-05-14T18:14:54.612Z,54.88
2023-05-14T18:17:21.276Z,55.14
2023-05-14T18:19:48.442Z,54.99
2023-05-14T18:22:15.593Z,55.21
2023-05-14T18:24:44.127Z,54.79
2023-05-14T18:27:10.727Z,56.13
2023-05-14T18:29:37.167Z,56.17
2023-05-14T18:32:03.894Z,56.00
2023-05-14T18:34:30.339Z,55.87
2023-05-14T18:36:57.628Z,56.64
2023-05-14T18:39:24.097Z,56.42
2023-05-14T18:41:50.584Z,57.20
2023-05-14T18:44:17.013Z,57.31
2023-05-14T18:46:43.607Z,56.74
2023-05-14T18:49:09.990Z,56.41
2023-05-14T18:51:36.460Z,56.80
2023-05-14T18:54:03.205Z,56.39
2023-05-14T18:56:29.628Z,56.75
2023-05-14T18:58:56.132Z,57.58
2023-05-14T19:01:25.447Z,58.07
2023-05-14T19:03:53.031Z,58.21
2023-05-14T19:06:19.839Z,58.07
2023-05-14T19:08:46.446Z,57.94
2023-05-14T19:11:12.910Z,58.24
2023-05-14T19:13:39.420Z,58.60
2023-05-14T19:16:06.418Z,58.55
2023-05-14T19:18:32.943Z,59.29
2023-05-14T19:21:00.000Z,60.05
2023-05-14T19:23:26.486Z,59.25
2023-05-14T19:25:53.063Z,58.97
2023-05-14T19:28:19.942Z,59.62
2023-05-14T19:30:46.398Z,59.22
2023-05-14T19:33:15.756Z,58.95
2023-05-14T19:35:42.295Z,59.80
2023-05-14T19:38:10.790Z,59.88
2023-05-14T19:40:37.221Z,59.29
2023-05-14T19:43:03.706Z,61.47
2023-05-14T19:45:30.207Z,60.46
2023-05-14T19:47:56.955Z,60.95
2023-05-14T19:50:23.361Z,61.03
2023-05-14T19:52:49.848Z,62.30
2023-05-14T19:55:16.387Z,61.52
2023-05-14T19:57:42.866Z,62.26
2023-05-14T20:00:10.539Z,62.22
2023-05-14T20:02:37.145Z,62.44
2023-05-14T20:05:03.825Z,63.62
2023-05-14T20:07:30.276Z,63.93
2023-05-14T20:09:56.854Z,63.98
2023-05-14T20:12:23.710Z,64.64
2023-05-14T20:14:50.192Z,64.48
2023-05-14T20:17:16.785Z,64.85
2023-05-14T20:19:43.810Z,63.90
2023-05-14T20:22:10.386Z,63.64
2023-05-14T20:24:36.908Z,64.92
2023-05-14T20:27:03.566Z,65.22
2023-05-14T20:29:30.346Z,65.42
2023-05-14T20:31:56.939Z,65.15
2023-05-14T20:34:25.673Z,66.03
2023-05-14T20:37:27.672Z,66.81
2023-05-14T20:39:59.769Z,66.63
2023-05-14T20:42:27.165Z,66.31
2023-05-14T20:44:59.659Z,65.99
2023-05-14T20:47:30.752Z,65.56
2023-05-14T20:50:04.077Z,65.38
2023-05-14T20:52:31.291Z,65.72
2023-05-14T20:55:00.855Z,66.21
2023-05-14T20:57:41.639Z,66.23
2023-05-14T21:00:13.946Z,66.16
2023-05-14T21:02:41.140Z,66.44
2023-05-14T21:05:08.252Z,66.50
2023-05-14T21:07:38.342Z,66.16
2023-05-14T21:10:14.863Z,65.65
2023-05-14T21:12:47.286Z,66.27
2023-05-14T21:15:19.610Z,65.67
2023-05-14T21:17:52.744Z,65.32
2023-05-14T21:20:20.122Z,66.22
2023-05-14T21:22:55.183Z,66.54
2023-05-14T21:25:34.178Z,66.36
2023-05-14T21:28:07.381Z,67.06
2023-05-14T21:33:15.811Z,67.40
2023-05-14T21:35:42.532Z,67.37
2023-05-14T21:38:09.281Z,68.39
2023-05-14T21:40:35.873Z,67.94
2023-05-14T21:43:02.929Z,68.88
2023-05-14T21:45:29.806Z,68.59
2023-05-14T21:47:56.368Z,68.33
2023-05-14T21:50:23.122Z,68.78
2023-05-14T21:52:49.805Z,69.56
2023-05-14T21:55:16.358Z,69.46
2023-05-14T21:57:43.059Z,69.14
2023-05-14T22:00:12.774Z,68.60
2023-05-14T22:02:39.863Z,69.20
2023-05-14T22:05:06.579Z,68.72
2023-05-14T22:07:33.294Z,67.73
2023-05-14T22:09:59.965Z,67.58
2023-05-14T22:12:26.917Z,68.03
2023-05-14T22:14:53.558Z,67.32
2023-05-14T22:17:20.256Z,67.62
2023-05-14T22:19:46.931Z,67.73
2023-05-14T22:22:13.504Z,69.26
2023-05-14T22:24:40.181Z,68.62
2023-05-14T22:27:06.804Z,68.15
2023-05-14T22:29:33.279Z,68.89
2023-05-14T22:31:59.804Z,67.90
2023-05-14T22:34:26.417Z,68.17
2023-05-14T22:36:53.160Z,68.34
2023-05-14T22:39:19.666Z,68.25
2023-05-14T22:41:46.198Z,69.40
2023-05-14T22:44:12.651Z,69.12
2023-05-14T22:46:39.202Z,69.49
2023-05-14T22:49:05.933Z,68.45
2023-05-14T22:51:32.822Z,68.05
2023-05-14T22:53:59.390Z,69.15
2023-05-14T22:56:25.909Z,69.32
2023-05-14T22:58:52.458Z,69.60
2023-05-14T23:01:19.088Z,70.16
2023-05-14T23:03:45.642Z,70.36
2023-05-14T23:06:14.591Z,71.79
2023-05-14T23:08:41.163Z,71.31
2023-05-14T23:11:07.733Z,70.43
2023-05-14T23:13:34.388Z,70.46
2023-05-14T23:16:00.965Z,69.55
2023-05-14T23:18:27.828Z,69.84
2023-05-14T23:20:54.610Z,69.79
2023-05-14T23:23:21.217Z,69.75
2023-05-14T23:25:50.166Z,70.80
2023-05-14T23:28:17.297Z,71.22
2023-05-14T23:30:44.038Z,71.71
2023-05-14T23:33:10.797Z,70.63
2023-05-14T23:35:39.038Z,71.29
2023-05-14T23:38:06.293Z,70.89
2023-05-14T23:40:33.955Z,70.88
2023-05-14T23:43:01.214Z,70.52
2023-05-14T23:45:28.165Z,69.87
2023-05-14T23:47:56.578Z,70.05
2023-05-14T23:50:23.222Z,69.96
2023-05-14T23:52:53.476Z,71.22
2023-05-14T23:55:20.626Z,71.07
2023-05-14T23:57:47.717Z,71.50
